sensor_id;sensor_type;location;lat;lon;timestamp;P1;durP1;ratioP1;P2;durP2;ratioP2
35444;SDS011;21562;49.476;6.086;2022-07-23T00:00:14;19.27;;;10.75;;
35444;SDS011;21562;49.476;6.086;2022-07-23T00:02:40;20.27;;;11.45;;
35444;SDS011;21562;49.476;6.086;2022-07-23T00:05:06;15.20;;;10.85;;
35444;SDS011;21562;49.476;6.086;2022-07-23T00:07:33;13.25;;;10.80;;
35444;SDS011;21562;49.476;6.086;2022-07-23T00:09:58;16.13;;;10.77;;
35444;SDS011;21562;49.476;6.086;2022-07-23T00:12:24;14.98;;;10.70;;
35444;SDS011;21562;49.476;6.086;2022-07-23T00:14:50;17.85;;;11.02;;
35444;SDS011;21562;49.476;6.086;2022-07-23T00:17:16;14.57;;;11.70;;
35444;SDS011;21562;49.476;6.086;2022-07-23T00:19:42;15.60;;;12.23;;
35444;SDS011;21562;49.476;6.086;2022-07-23T00:22:08;16.92;;;12.30;;
35444;SDS011;21562;49.476;6.086;2022-07-23T00:24:33;16.35;;;12.05;;
35444;SDS011;21562;49.476;6.086;2022-07-23T00:26:59;18.77;;;13.23;;
35444;SDS011;21562;49.476;6.086;2022-07-23T00:29:25;19.13;;;14.35;;
35444;SDS011;21562;49.476;6.086;2022-07-23T00:31:50;21.48;;;13.40;;
35444;SDS011;21562;49.476;6.086;2022-07-23T00:34:16;18.77;;;13.52;;
35444;SDS011;21562;49.476;6.086;2022-07-23T00:36:42;17.60;;;12.45;;
35444;SDS011;21562;49.476;6.086;2022-07-23T00:39:07;15.93;;;11.95;;
35444;SDS011;21562;49.476;6.086;2022-07-23T00:41:33;18.98;;;13.38;;
35444;SDS011;21562;49.476;6.086;2022-07-23T00:44:19;22.38;;;13.95;;
35444;SDS011;21562;49.476;6.086;2022-07-23T00:46:50;16.35;;;12.95;;
35444;SDS011;21562;49.476;6.086;2022-07-23T00:49:19;19.15;;;12.88;;
35444;SDS011;21562;49.476;6.086;2022-07-23T00:51:46;17.05;;;12.43;;
35444;SDS011;21562;49.476;6.086;2022-07-23T00:54:12;15.07;;;12.18;;
35444;SDS011;21562;49.476;6.086;2022-07-23T00:56:38;17.77;;;12.10;;
35444;SDS011;21562;49.476;6.086;2022-07-23T00:59:05;18.88;;;12.77;;
35444;SDS011;21562;49.476;6.086;2022-07-23T01:01:32;15.90;;;11.63;;
35444;SDS011;21562;49.476;6.086;2022-07-23T01:03:58;18.23;;;12.32;;
35444;SDS011;21562;49.476;6.086;2022-07-23T01:06:23;18.38;;;12.32;;
35444;SDS011;21562;49.476;6.086;2022-07-23T01:08:49;18.55;;;14.02;;
35444;SDS011;21562;49.476;6.086;2022-07-23T01:11:15;17.95;;;12.32;;
35444;SDS011;21562;49.476;6.086;2022-07-23T01:13:43;16.30;;;12.45;;
35444;SDS011;21562;49.476;6.086;2022-07-23T01:16:09;17.80;;;13.55;;
35444;SDS011;21562;49.476;6.086;2022-07-23T01:18:34;18.08;;;12.50;;
35444;SDS011;21562;49.476;6.086;2022-07-23T01:21:00;18.25;;;13.52;;
35444;SDS011;21562;49.476;6.086;2022-07-23T01:23:26;18.20;;;13.23;;
35444;SDS011;21562;49.476;6.086;2022-07-23T01:25:52;21.35;;;14.05;;
35444;SDS011;21562;49.476;6.086;2022-07-23T01:28:18;18.40;;;13.20;;
35444;SDS011;21562;49.476;6.086;2022-07-23T01:30:44;19.20;;;13.20;;
35444;SDS011;21562;49.476;6.086;2022-07-23T01:33:11;18.50;;;14.35;;
35444;SDS011;21562;49.476;6.086;2022-07-23T01:35:36;19.90;;;14.10;;
35444;SDS011;21562;49.476;6.086;2022-07-23T01:38:02;17.98;;;13.52;;
35444;SDS011;21562;49.476;6.086;2022-07-23T01:40:28;19.65;;;14.32;;
35444;SDS011;21562;49.476;6.086;2022-07-23T01:42:54;21.90;;;15.02;;
35444;SDS011;21562;49.476;6.086;2022-07-23T01:45:19;19.65;;;15.32;;
35444;SDS011;21562;49.476;6.086;2022-07-23T01:47:45;18.42;;;14.57;;
35444;SDS011;21562;49.476;6.086;2022-07-23T01:50:12;19.85;;;13.93;;
35444;SDS011;21562;49.476;6.086;2022-07-23T01:52:38;20.10;;;14.55;;
35444;SDS011;21562;49.476;6.086;2022-07-23T01:55:03;20.73;;;15.05;;
35444;SDS011;21562;49.476;6.086;2022-07-23T01:57:30;21.35;;;14.13;;
35444;SDS011;21562;49.476;6.086;2022-07-23T01:59:56;19.73;;;13.98;;
35444;SDS011;21562;49.476;6.086;2022-07-23T02:02:22;20.02;;;13.25;;
35444;SDS011;21562;49.476;6.086;2022-07-23T02:04:48;18.95;;;13.60;;
35444;SDS011;21562;49.476;6.086;2022-07-23T02:07:13;20.73;;;14.10;;
35444;SDS011;21562;49.476;6.086;2022-07-23T02:09:39;16.08;;;13.65;;
35444;SDS011;21562;49.476;6.086;2022-07-23T02:12:05;20.85;;;14.77;;
35444;SDS011;21562;49.476;6.086;2022-07-23T02:14:31;18.83;;;13.68;;
35444;SDS011;21562;49.476;6.086;2022-07-23T02:16:56;18.85;;;14.60;;
35444;SDS011;21562;49.476;6.086;2022-07-23T02:19:22;18.58;;;14.82;;
35444;SDS011;21562;49.476;6.086;2022-07-23T02:21:48;17.48;;;13.65;;
35444;SDS011;21562;49.476;6.086;2022-07-23T02:24:14;17.05;;;13.63;;
35444;SDS011;21562;49.476;6.086;2022-07-23T02:26:40;20.88;;;14.45;;
35444;SDS011;21562;49.476;6.086;2022-07-23T02:29:06;16.52;;;14.57;;
35444;SDS011;21562;49.476;6.086;2022-07-23T02:31:32;23.60;;;14.30;;
35444;SDS011;21562;49.476;6.086;2022-07-23T02:33:58;19.15;;;13.93;;
35444;SDS011;21562;49.476;6.086;2022-07-23T02:36:24;18.52;;;13.98;;
35444;SDS011;21562;49.476;6.086;2022-07-23T02:38:49;22.00;;;13.85;;
35444;SDS011;21562;49.476;6.086;2022-07-23T02:41:15;16.73;;;13.68;;
35444;SDS011;21562;49.476;6.086;2022-07-23T02:43:41;18.42;;;13.18;;
35444;SDS011;21562;49.476;6.086;2022-07-23T02:46:07;20.95;;;14.88;;
35444;SDS011;21562;49.476;6.086;2022-07-23T02:48:33;18.95;;;13.27;;
35444;SDS011;21562;49.476;6.086;2022-07-23T02:50:58;16.17;;;13.10;;
35444;SDS011;21562;49.476;6.086;2022-07-23T02:53:24;18.92;;;14.52;;
35444;SDS011;21562;49.476;6.086;2022-07-23T02:55:50;18.65;;;13.68;;
35444;SDS011;21562;49.476;6.086;2022-07-23T02:58:16;17.83;;;12.85;;
35444;SDS011;21562;49.476;6.086;2022-07-23T03:00:41;20.65;;;15.40;;
35444;SDS011;21562;49.476;6.086;2022-07-23T03:03:07;20.73;;;14.95;;
35444;SDS011;21562;49.476;6.086;2022-07-23T03:05:33;23.50;;;14.52;;
35444;SDS011;21562;49.476;6.086;2022-07-23T03:07:59;20.83;;;14.30;;
35444;SDS011;21562;49.476;6.086;2022-07-23T03:10:25;17.45;;;14.25;;
35444;SDS011;21562;49.476;6.086;2022-07-23T03:12:51;17.98;;;13.93;;
35444;SDS011;21562;49.476;6.086;2022-07-23T03:15:16;21.92;;;14.75;;
35444;SDS011;21562;49.476;6.086;2022-07-23T03:17:42;19.50;;;14.95;;
35444;SDS011;21562;49.476;6.086;2022-07-23T03:20:08;18.60;;;14.35;;
35444;SDS011;21562;49.476;6.086;2022-07-23T03:22:34;21.52;;;13.68;;
35444;SDS011;21562;49.476;6.086;2022-07-23T03:25:00;18.02;;;13.75;;
35444;SDS011;21562;49.476;6.086;2022-07-23T03:27:27;23.60;;;14.88;;
35444;SDS011;21562;49.476;6.086;2022-07-23T03:29:55;23.50;;;15.98;;
35444;SDS011;21562;49.476;6.086;2022-07-23T03:32:22;19.77;;;14.88;;
35444;SDS011;21562;49.476;6.086;2022-07-23T03:34:48;22.25;;;15.43;;
35444;SDS011;21562;49.476;6.086;2022-07-23T03:37:14;20.80;;;15.98;;
35444;SDS011;21562;49.476;6.086;2022-07-23T03:39:40;21.23;;;15.93;;
35444;SDS011;21562;49.476;6.086;2022-07-23T03:42:06;21.83;;;16.10;;
35444;SDS011;21562;49.476;6.086;2022-07-23T03:44:32;21.92;;;15.02;;
35444;SDS011;21562;49.476;6.086;2022-07-23T03:46:58;21.85;;;15.23;;
35444;SDS011;21562;49.476;6.086;2022-07-23T03:49:24;24.25;;;15.20;;
35444;SDS011;21562;49.476;6.086;2022-07-23T03:51:50;20.50;;;15.90;;
35444;SDS011;21562;49.476;6.086;2022-07-23T03:54:16;26.02;;;16.55;;
35444;SDS011;21562;49.476;6.086;2022-07-23T03:56:42;23.05;;;16.33;;
35444;SDS011;21562;49.476;6.086;2022-07-23T03:59:08;18.90;;;13.70;;
35444;SDS011;21562;49.476;6.086;2022-07-23T04:01:35;21.95;;;15.80;;
35444;SDS011;21562;49.476;6.086;2022-07-23T04:04:01;23.48;;;16.08;;
35444;SDS011;21562;49.476;6.086;2022-07-23T04:06:28;22.38;;;16.20;;
35444;SDS011;21562;49.476;6.086;2022-07-23T04:08:54;25.17;;;16.88;;
35444;SDS011;21562;49.476;6.086;2022-07-23T04:11:19;21.90;;;16.17;;
35444;SDS011;21562;49.476;6.086;2022-07-23T04:13:45;25.40;;;17.05;;
35444;SDS011;21562;49.476;6.086;2022-07-23T04:16:11;24.27;;;16.70;;
35444;SDS011;21562;49.476;6.086;2022-07-23T04:18:37;23.83;;;16.50;;
35444;SDS011;21562;49.476;6.086;2022-07-23T04:21:03;18.77;;;14.38;;
35444;SDS011;21562;49.476;6.086;2022-07-23T04:23:28;24.65;;;16.52;;
35444;SDS011;21562;49.476;6.086;2022-07-23T04:25:54;23.98;;;17.17;;
35444;SDS011;21562;49.476;6.086;2022-07-23T04:28:20;22.92;;;16.60;;
35444;SDS011;21562;49.476;6.086;2022-07-23T04:30:45;22.40;;;15.73;;
35444;SDS011;21562;49.476;6.086;2022-07-23T04:33:11;28.08;;;17.15;;
35444;SDS011;21562;49.476;6.086;2022-07-23T04:35:37;20.73;;;15.02;;
35444;SDS011;21562;49.476;6.086;2022-07-23T04:38:03;18.42;;;13.82;;
35444;SDS011;21562;49.476;6.086;2022-07-23T04:40:29;19.27;;;12.65;;
35444;SDS011;21562;49.476;6.086;2022-07-23T04:42:55;19.65;;;14.20;;
35444;SDS011;21562;49.476;6.086;2022-07-23T04:45:21;16.17;;;10.50;;
35444;SDS011;21562;49.476;6.086;2022-07-23T04:47:48;13.57;;;9.85;;
35444;SDS011;21562;49.476;6.086;2022-07-23T04:50:14;20.98;;;13.13;;
35444;SDS011;21562;49.476;6.086;2022-07-23T04:52:44;13.77;;;10.00;;
35444;SDS011;21562;49.476;6.086;2022-07-23T04:55:09;13.70;;;11.13;;
35444;SDS011;21562;49.476;6.086;2022-07-23T04:57:35;15.10;;;9.25;;
35444;SDS011;21562;49.476;6.086;2022-07-23T05:00:02;15.68;;;10.45;;
35444;SDS011;21562;49.476;6.086;2022-07-23T05:02:29;14.02;;;10.23;;
35444;SDS011;21562;49.476;6.086;2022-07-23T05:04:54;14.88;;;9.98;;
35444;SDS011;21562;49.476;6.086;2022-07-23T05:07:20;15.82;;;10.05;;
35444;SDS011;21562;49.476;6.086;2022-07-23T05:09:46;13.52;;;10.02;;
35444;SDS011;21562;49.476;6.086;2022-07-23T05:12:12;13.55;;;9.77;;
35444;SDS011;21562;49.476;6.086;2022-07-23T05:14:38;13.23;;;9.73;;
35444;SDS011;21562;49.476;6.086;2022-07-23T05:17:03;14.55;;;9.95;;
35444;SDS011;21562;49.476;6.086;2022-07-23T05:19:29;10.82;;;8.68;;
35444;SDS011;21562;49.476;6.086;2022-07-23T05:21:55;13.43;;;9.43;;
35444;SDS011;21562;49.476;6.086;2022-07-23T05:24:20;19.52;;;14.27;;
35444;SDS011;21562;49.476;6.086;2022-07-23T05:26:46;22.70;;;12.18;;
35444;SDS011;21562;49.476;6.086;2022-07-23T05:29:12;21.45;;;10.90;;
35444;SDS011;21562;49.476;6.086;2022-07-23T05:31:37;21.25;;;12.23;;
35444;SDS011;21562;49.476;6.086;2022-07-23T05:34:03;21.05;;;12.95;;
35444;SDS011;21562;49.476;6.086;2022-07-23T05:36:30;24.35;;;12.18;;
35444;SDS011;21562;49.476;6.086;2022-07-23T05:38:57;23.40;;;15.60;;
35444;SDS011;21562;49.476;6.086;2022-07-23T05:41:23;24.58;;;12.20;;
35444;SDS011;21562;49.476;6.086;2022-07-23T05:43:49;29.50;;;13.85;;
35444;SDS011;21562;49.476;6.086;2022-07-23T05:46:14;23.25;;;13.80;;
35444;SDS011;21562;49.476;6.086;2022-07-23T05:48:40;31.02;;;14.68;;
35444;SDS011;21562;49.476;6.086;2022-07-23T05:51:07;27.92;;;12.63;;
35444;SDS011;21562;49.476;6.086;2022-07-23T05:53:34;24.15;;;15.68;;
35444;SDS011;21562;49.476;6.086;2022-07-23T05:56:00;33.22;;;14.07;;
35444;SDS011;21562;49.476;6.086;2022-07-23T05:58:26;23.52;;;14.52;;
35444;SDS011;21562;49.476;6.086;2022-07-23T06:00:52;23.02;;;13.13;;
35444;SDS011;21562;49.476;6.086;2022-07-23T06:03:18;27.42;;;16.67;;
35444;SDS011;21562;49.476;6.086;2022-07-23T06:05:44;26.42;;;14.75;;
35444;SDS011;21562;49.476;6.086;2022-07-23T06:08:10;23.10;;;14.60;;
35444;SDS011;21562;49.476;6.086;2022-07-23T06:10:36;24.10;;;12.63;;
35444;SDS011;21562;49.476;6.086;2022-07-23T06:13:02;25.75;;;13.18;;
35444;SDS011;21562;49.476;6.086;2022-07-23T06:15:28;25.40;;;14.32;;
35444;SDS011;21562;49.476;6.086;2022-07-23T06:17:55;24.25;;;15.75;;
35444;SDS011;21562;49.476;6.086;2022-07-23T06:20:21;26.60;;;14.85;;
35444;SDS011;21562;49.476;6.086;2022-07-23T06:22:46;21.40;;;13.80;;
35444;SDS011;21562;49.476;6.086;2022-07-23T06:25:12;18.98;;;12.18;;
35444;SDS011;21562;49.476;6.086;2022-07-23T06:27:38;24.52;;;13.73;;
35444;SDS011;21562;49.476;6.086;2022-07-23T06:30:04;25.80;;;16.13;;
35444;SDS011;21562;49.476;6.086;2022-07-23T06:32:30;28.60;;;14.73;;
35444;SDS011;21562;49.476;6.086;2022-07-23T06:34:56;23.88;;;15.05;;
35444;SDS011;21562;49.476;6.086;2022-07-23T06:37:22;23.42;;;14.93;;
35444;SDS011;21562;49.476;6.086;2022-07-23T06:39:47;26.35;;;17.48;;
35444;SDS011;21562;49.476;6.086;2022-07-23T06:42:13;21.10;;;15.45;;
35444;SDS011;21562;49.476;6.086;2022-07-23T06:44:39;21.13;;;14.10;;
35444;SDS011;21562;49.476;6.086;2022-07-23T06:47:05;19.75;;;13.75;;
35444;SDS011;21562;49.476;6.086;2022-07-23T06:49:31;21.27;;;15.10;;
35444;SDS011;21562;49.476;6.086;2022-07-23T06:51:57;25.38;;;16.27;;
35444;SDS011;21562;49.476;6.086;2022-07-23T06:54:22;25.73;;;17.27;;
35444;SDS011;21562;49.476;6.086;2022-07-23T06:56:48;21.35;;;12.13;;
35444;SDS011;21562;49.476;6.086;2022-07-23T06:59:14;21.38;;;13.48;;
35444;SDS011;21562;49.476;6.086;2022-07-23T07:01:40;18.80;;;12.07;;
35444;SDS011;21562;49.476;6.086;2022-07-23T07:04:06;22.50;;;15.82;;
35444;SDS011;21562;49.476;6.086;2022-07-23T07:06:31;30.23;;;16.73;;
35444;SDS011;21562;49.476;6.086;2022-07-23T07:08:57;26.60;;;18.23;;
35444;SDS011;21562;49.476;6.086;2022-07-23T07:11:23;23.52;;;16.77;;
35444;SDS011;21562;49.476;6.086;2022-07-23T07:13:50;31.05;;;17.80;;
35444;SDS011;21562;49.476;6.086;2022-07-23T07:16:16;31.08;;;18.73;;
35444;SDS011;21562;49.476;6.086;2022-07-23T07:18:42;36.15;;;19.17;;
35444;SDS011;21562;49.476;6.086;2022-07-23T07:21:07;30.52;;;17.67;;
35444;SDS011;21562;49.476;6.086;2022-07-23T07:23:33;29.42;;;16.67;;
35444;SDS011;21562;49.476;6.086;2022-07-23T07:25:59;26.08;;;17.15;;
35444;SDS011;21562;49.476;6.086;2022-07-23T07:28:24;26.73;;;15.57;;
35444;SDS011;21562;49.476;6.086;2022-07-23T07:30:50;26.35;;;16.35;;
35444;SDS011;21562;49.476;6.086;2022-07-23T07:33:16;28.60;;;17.63;;
35444;SDS011;21562;49.476;6.086;2022-07-23T07:35:42;28.00;;;17.92;;
35444;SDS011;21562;49.476;6.086;2022-07-23T07:38:08;25.35;;;16.55;;
35444;SDS011;21562;49.476;6.086;2022-07-23T07:40:33;28.38;;;17.17;;
35444;SDS011;21562;49.476;6.086;2022-07-23T07:42:59;27.73;;;16.73;;
35444;SDS011;21562;49.476;6.086;2022-07-23T07:45:26;24.55;;;15.43;;
35444;SDS011;21562;49.476;6.086;2022-07-23T07:47:52;22.05;;;14.57;;
35444;SDS011;21562;49.476;6.086;2022-07-23T07:50:18;27.90;;;16.95;;
35444;SDS011;21562;49.476;6.086;2022-07-23T07:52:45;28.92;;;17.35;;
35444;SDS011;21562;49.476;6.086;2022-07-23T07:55:11;19.65;;;14.55;;
35444;SDS011;21562;49.476;6.086;2022-07-23T07:57:37;26.40;;;17.17;;
35444;SDS011;21562;49.476;6.086;2022-07-23T08:00:05;27.25;;;15.75;;
35444;SDS011;21562;49.476;6.086;2022-07-23T08:02:44;25.23;;;14.75;;
35444;SDS011;21562;49.476;6.086;2022-07-23T08:05:18;22.88;;;15.50;;
35444;SDS011;21562;49.476;6.086;2022-07-23T08:07:45;22.38;;;15.43;;
35444;SDS011;21562;49.476;6.086;2022-07-23T08:10:11;24.23;;;15.20;;
35444;SDS011;21562;49.476;6.086;2022-07-23T08:12:38;23.52;;;14.98;;
35444;SDS011;21562;49.476;6.086;2022-07-23T08:15:05;24.45;;;14.05;;
35444;SDS011;21562;49.476;6.086;2022-07-23T08:17:31;24.27;;;16.20;;
35444;SDS011;21562;49.476;6.086;2022-07-23T08:19:57;27.33;;;16.77;;
35444;SDS011;21562;49.476;6.086;2022-07-23T08:22:23;29.40;;;18.33;;
35444;SDS011;21562;49.476;6.086;2022-07-23T08:24:48;27.52;;;17.13;;
35444;SDS011;21562;49.476;6.086;2022-07-23T08:27:14;29.88;;;18.30;;
35444;SDS011;21562;49.476;6.086;2022-07-23T08:29:40;27.42;;;17.73;;
35444;SDS011;21562;49.476;6.086;2022-07-23T08:32:06;23.13;;;15.32;;
35444;SDS011;21562;49.476;6.086;2022-07-23T08:34:31;27.23;;;17.35;;
35444;SDS011;21562;49.476;6.086;2022-07-23T08:36:57;28.25;;;18.98;;
35444;SDS011;21562;49.476;6.086;2022-07-23T08:39:23;28.00;;;17.35;;
35444;SDS011;21562;49.476;6.086;2022-07-23T08:41:48;29.67;;;16.23;;
35444;SDS011;21562;49.476;6.086;2022-07-23T08:44:15;28.67;;;16.27;;
35444;SDS011;21562;49.476;6.086;2022-07-23T08:46:43;28.63;;;16.50;;
35444;SDS011;21562;49.476;6.086;2022-07-23T08:49:10;23.75;;;15.65;;
35444;SDS011;21562;49.476;6.086;2022-07-23T08:51:36;28.15;;;15.80;;
35444;SDS011;21562;49.476;6.086;2022-07-23T08:54:01;28.75;;;17.33;;
35444;SDS011;21562;49.476;6.086;2022-07-23T08:56:29;25.75;;;16.30;;
35444;SDS011;21562;49.476;6.086;2022-07-23T08:58:54;26.98;;;17.92;;
35444;SDS011;21562;49.476;6.086;2022-07-23T09:01:20;25.67;;;16.58;;
35444;SDS011;21562;49.476;6.086;2022-07-23T09:03:46;23.45;;;14.90;;
35444;SDS011;21562;49.476;6.086;2022-07-23T09:06:12;21.98;;;13.45;;
35444;SDS011;21562;49.476;6.086;2022-07-23T09:08:38;23.35;;;15.07;;
35444;SDS011;21562;49.476;6.086;2022-07-23T09:11:09;23.80;;;15.10;;
35444;SDS011;21562;49.476;6.086;2022-07-23T09:13:41;26.17;;;15.05;;
35444;SDS011;21562;49.476;6.086;2022-07-23T09:16:25;24.38;;;14.60;;
35444;SDS011;21562;49.476;6.086;2022-07-23T09:19:00;24.67;;;15.85;;
35444;SDS011;21562;49.476;6.086;2022-07-23T09:21:29;24.35;;;15.07;;
35444;SDS011;21562;49.476;6.086;2022-07-23T09:24:00;22.08;;;13.77;;
35444;SDS011;21562;49.476;6.086;2022-07-23T09:31:46;20.13;;;14.52;;
35444;SDS011;21562;49.476;6.086;2022-07-23T09:34:20;26.77;;;16.20;;
35444;SDS011;21562;49.476;6.086;2022-07-23T09:36:50;18.83;;;13.45;;
35444;SDS011;21562;49.476;6.086;2022-07-23T09:39:22;20.17;;;13.90;;
35444;SDS011;21562;49.476;6.086;2022-07-23T09:41:51;21.73;;;13.93;;
35444;SDS011;21562;49.476;6.086;2022-07-23T09:44:19;19.98;;;12.95;;
35444;SDS011;21562;49.476;6.086;2022-07-23T09:46:47;23.80;;;14.70;;
35444;SDS011;21562;49.476;6.086;2022-07-23T09:49:21;27.17;;;17.60;;
35444;SDS011;21562;49.476;6.086;2022-07-23T09:51:54;24.95;;;15.27;;
35444;SDS011;21562;49.476;6.086;2022-07-23T09:56:52;24.50;;;15.98;;
35444;SDS011;21562;49.476;6.086;2022-07-23T09:59:18;21.40;;;13.70;;
35444;SDS011;21562;49.476;6.086;2022-07-23T10:01:50;18.05;;;11.68;;
35444;SDS011;21562;49.476;6.086;2022-07-23T10:04:16;20.45;;;14.70;;
35444;SDS011;21562;49.476;6.086;2022-07-23T10:06:43;20.88;;;13.55;;
35444;SDS011;21562;49.476;6.086;2022-07-23T10:09:10;27.02;;;16.08;;
35444;SDS011;21562;49.476;6.086;2022-07-23T10:11:37;23.60;;;15.07;;
35444;SDS011;21562;49.476;6.086;2022-07-23T10:14:03;26.50;;;17.40;;
35444;SDS011;21562;49.476;6.086;2022-07-23T10:16:30;20.83;;;14.25;;
35444;SDS011;21562;49.476;6.086;2022-07-23T10:18:56;24.25;;;16.05;;
35444;SDS011;21562;49.476;6.086;2022-07-23T10:21:42;21.50;;;14.40;;
35444;SDS011;21562;49.476;6.086;2022-07-23T10:32:14;23.08;;;12.85;;
35444;SDS011;21562;49.476;6.086;2022-07-23T10:34:58;25.77;;;13.95;;
35444;SDS011;21562;49.476;6.086;2022-07-23T10:37:28;17.13;;;11.80;;
35444;SDS011;21562;49.476;6.086;2022-07-23T10:40:15;21.02;;;14.88;;
35444;SDS011;21562;49.476;6.086;2022-07-23T10:42:43;24.05;;;15.05;;
35444;SDS011;21562;49.476;6.086;2022-07-23T10:45:29;21.02;;;13.65;;
35444;SDS011;21562;49.476;6.086;2022-07-23T10:47:55;17.75;;;11.25;;
35444;SDS011;21562;49.476;6.086;2022-07-23T10:56:17;20.75;;;13.20;;
35444;SDS011;21562;49.476;6.086;2022-07-23T10:59:15;17.60;;;12.73;;
35444;SDS011;21562;49.476;6.086;2022-07-23T11:01:41;19.80;;;12.10;;
35444;SDS011;21562;49.476;6.086;2022-07-23T11:04:06;19.35;;;12.85;;
35444;SDS011;21562;49.476;6.086;2022-07-23T11:11:49;15.90;;;11.07;;
35444;SDS011;21562;49.476;6.086;2022-07-23T11:14:14;14.75;;;9.55;;
35444;SDS011;21562;49.476;6.086;2022-07-23T11:16:45;15.90;;;11.07;;
35444;SDS011;21562;49.476;6.086;2022-07-23T11:19:13;15.52;;;10.77;;
35444;SDS011;21562;49.476;6.086;2022-07-23T11:31:53;18.40;;;10.73;;
35444;SDS011;21562;49.476;6.086;2022-07-23T11:34:26;13.75;;;10.25;;
35444;SDS011;21562;49.476;6.086;2022-07-23T11:36:54;14.60;;;9.65;;
35444;SDS011;21562;49.476;6.086;2022-07-23T11:39:20;15.93;;;10.90;;
35444;SDS011;21562;49.476;6.086;2022-07-23T11:41:49;27.25;;;12.73;;
35444;SDS011;21562;49.476;6.086;2022-07-23T11:44:29;17.17;;;11.57;;
35444;SDS011;21562;49.476;6.086;2022-07-23T11:46:57;18.60;;;12.32;;
35444;SDS011;21562;49.476;6.086;2022-07-23T11:49:30;18.98;;;12.30;;
35444;SDS011;21562;49.476;6.086;2022-07-23T11:54:33;16.08;;;11.68;;
35444;SDS011;21562;49.476;6.086;2022-07-23T11:57:01;18.02;;;11.52;;
35444;SDS011;21562;49.476;6.086;2022-07-23T11:59:29;14.38;;;10.13;;
35444;SDS011;21562;49.476;6.086;2022-07-23T12:02:00;21.20;;;12.73;;
35444;SDS011;21562;49.476;6.086;2022-07-23T12:04:42;18.13;;;10.55;;
35444;SDS011;21562;49.476;6.086;2022-07-23T12:09:57;18.10;;;10.73;;
35444;SDS011;21562;49.476;6.086;2022-07-23T12:12:24;17.02;;;11.23;;
35444;SDS011;21562;49.476;6.086;2022-07-23T12:14:52;18.23;;;11.05;;
35444;SDS011;21562;49.476;6.086;2022-07-23T12:17:18;17.92;;;12.30;;
35444;SDS011;21562;49.476;6.086;2022-07-23T12:19:44;16.55;;;11.35;;
35444;SDS011;21562;49.476;6.086;2022-07-23T12:22:11;20.00;;;12.10;;
35444;SDS011;21562;49.476;6.086;2022-07-23T12:24:58;14.88;;;11.57;;
35444;SDS011;21562;49.476;6.086;2022-07-23T12:27:26;15.60;;;10.18;;
35444;SDS011;21562;49.476;6.086;2022-07-23T12:29:52;22.30;;;11.30;;
35444;SDS011;21562;49.476;6.086;2022-07-23T12:32:25;17.80;;;10.50;;
35444;SDS011;21562;49.476;6.086;2022-07-23T12:35:08;21.13;;;11.48;;
35444;SDS011;21562;49.476;6.086;2022-07-23T12:37:35;18.73;;;11.10;;
35444;SDS011;21562;49.476;6.086;2022-07-23T12:40:22;12.27;;;9.95;;
35444;SDS011;21562;49.476;6.086;2022-07-23T12:42:50;19.02;;;10.35;;
35444;SDS011;21562;49.476;6.086;2022-07-23T12:45:18;14.82;;;10.32;;
35444;SDS011;21562;49.476;6.086;2022-07-23T12:50:49;16.35;;;10.20;;
35444;SDS011;21562;49.476;6.086;2022-07-23T12:53:16;12.15;;;8.80;;
35444;SDS011;21562;49.476;6.086;2022-07-23T12:56:09;19.27;;;10.25;;
35444;SDS011;21562;49.476;6.086;2022-07-23T12:58:55;12.65;;;9.07;;
35444;SDS011;21562;49.476;6.086;2022-07-23T13:01:30;8.77;;;7.47;;
35444;SDS011;21562;49.476;6.086;2022-07-23T13:03:59;13.10;;;8.52;;
35444;SDS011;21562;49.476;6.086;2022-07-23T13:06:34;14.13;;;9.65;;
35444;SDS011;21562;49.476;6.086;2022-07-23T13:09:01;12.90;;;9.93;;
35444;SDS011;21562;49.476;6.086;2022-07-23T13:11:28;13.25;;;9.18;;
35444;SDS011;21562;49.476;6.086;2022-07-23T13:13:54;14.38;;;9.60;;
35444;SDS011;21562;49.476;6.086;2022-07-23T13:16:20;13.63;;;9.13;;
35444;SDS011;21562;49.476;6.086;2022-07-23T13:18:46;12.13;;;8.55;;
35444;SDS011;21562;49.476;6.086;2022-07-23T13:21:11;10.25;;;7.40;;
35444;SDS011;21562;49.476;6.086;2022-07-23T13:23:37;12.52;;;8.68;;
35444;SDS011;21562;49.476;6.086;2022-07-23T13:26:03;14.43;;;8.77;;
35444;SDS011;21562;49.476;6.086;2022-07-23T13:28:29;12.88;;;9.85;;
35444;SDS011;21562;49.476;6.086;2022-07-23T13:30:55;16.45;;;10.15;;
35444;SDS011;21562;49.476;6.086;2022-07-23T13:33:22;13.18;;;9.48;;
35444;SDS011;21562;49.476;6.086;2022-07-23T13:35:49;14.63;;;9.55;;
35444;SDS011;21562;49.476;6.086;2022-07-23T13:38:16;12.68;;;9.50;;
35444;SDS011;21562;49.476;6.086;2022-07-23T13:40:43;15.75;;;8.90;;
35444;SDS011;21562;49.476;6.086;2022-07-23T13:43:10;14.70;;;9.27;;
35444;SDS011;21562;49.476;6.086;2022-07-23T13:45:38;13.80;;;9.30;;
35444;SDS011;21562;49.476;6.086;2022-07-23T13:48:05;10.48;;;8.60;;
35444;SDS011;21562;49.476;6.086;2022-07-23T13:50:31;13.32;;;9.25;;
35444;SDS011;21562;49.476;6.086;2022-07-23T13:53:00;12.20;;;8.90;;
35444;SDS011;21562;49.476;6.086;2022-07-23T13:55:27;12.13;;;8.52;;
35444;SDS011;21562;49.476;6.086;2022-07-23T13:57:53;10.13;;;7.97;;
35444;SDS011;21562;49.476;6.086;2022-07-23T14:00:18;12.55;;;8.35;;
35444;SDS011;21562;49.476;6.086;2022-07-23T14:02:44;9.07;;;7.65;;
35444;SDS011;21562;49.476;6.086;2022-07-23T14:05:10;11.18;;;7.82;;
35444;SDS011;21562;49.476;6.086;2022-07-23T14:07:37;11.10;;;8.15;;
35444;SDS011;21562;49.476;6.086;2022-07-23T14:10:04;10.20;;;7.50;;
35444;SDS011;21562;49.476;6.086;2022-07-23T14:12:31;12.20;;;8.27;;
35444;SDS011;21562;49.476;6.086;2022-07-23T14:14:57;15.38;;;8.48;;
35444;SDS011;21562;49.476;6.086;2022-07-23T14:17:23;10.90;;;7.53;;
35444;SDS011;21562;49.476;6.086;2022-07-23T14:19:48;11.30;;;7.90;;
35444;SDS011;21562;49.476;6.086;2022-07-23T14:22:15;11.88;;;7.55;;
35444;SDS011;21562;49.476;6.086;2022-07-23T14:24:41;10.60;;;7.72;;
35444;SDS011;21562;49.476;6.086;2022-07-23T14:27:07;13.00;;;7.72;;
35444;SDS011;21562;49.476;6.086;2022-07-23T14:29:33;12.30;;;7.22;;
35444;SDS011;21562;49.476;6.086;2022-07-23T14:31:59;10.70;;;7.63;;
35444;SDS011;21562;49.476;6.086;2022-07-23T14:34:25;8.57;;;7.45;;
35444;SDS011;21562;49.476;6.086;2022-07-23T14:36:51;12.65;;;7.45;;
35444;SDS011;21562;49.476;6.086;2022-07-23T14:39:17;12.40;;;8.25;;
35444;SDS011;21562;49.476;6.086;2022-07-23T14:41:43;9.90;;;8.52;;
35444;SDS011;21562;49.476;6.086;2022-07-23T14:44:09;12.02;;;8.80;;
35444;SDS011;21562;49.476;6.086;2022-07-23T14:46:35;11.63;;;7.70;;
35444;SDS011;21562;49.476;6.086;2022-07-23T14:49:01;10.38;;;8.05;;
35444;SDS011;21562;49.476;6.086;2022-07-23T14:51:27;12.82;;;8.77;;
35444;SDS011;21562;49.476;6.086;2022-07-23T14:53:53;15.63;;;8.60;;
35444;SDS011;21562;49.476;6.086;2022-07-23T14:56:18;11.93;;;8.70;;
35444;SDS011;21562;49.476;6.086;2022-07-23T14:58:44;11.38;;;8.07;;
35444;SDS011;21562;49.476;6.086;2022-07-23T15:01:10;9.02;;;7.70;;
35444;SDS011;21562;49.476;6.086;2022-07-23T15:03:36;11.90;;;8.13;;
35444;SDS011;21562;49.476;6.086;2022-07-23T15:06:02;11.43;;;8.05;;
35444;SDS011;21562;49.476;6.086;2022-07-23T15:08:28;11.43;;;8.20;;